Time;durP1;ratioP1;P1;durP2;ratioP2;P2;SDS_P1;SDS_P2;PMS_P1;PMS_P2;Temp;Humidity;BMP_temperature;BMP_pressure;BME280_temperature;BME280_humidity;BME280_pressure;Samples;Min_cycle;Max_cycle;Signal;HPM_P1;HPM_P2
2023/06/13 00:00:32;;;;;;;9.90;5.60;;;18.00;64.00;;;;;;5096897;27;20067;-54
2023/06/13 00:02:58;;;;;;;7.03;5.30;;;18.10;63.60;;;;;;5089978;28;20424;-55
2023/06/13 00:05:24;;;;;;;8.60;5.38;;;18.10;63.80;;;;;;5100848;28;20119;-52
2023/06/13 00:07:50;;;;;;;5.65;3.60;;;18.10;63.70;;;;;;5107826;28;20031;-55
2023/06/13 00:10:15;;;;;;;;;;;18.00;63.50;;;;;;5102144;28;20076;-55
2023/06/13 00:12:44;;;;;;;7.78;4.22;;;18.00;63.30;;;;;;5089945;28;19916;-55
2023/06/13 00:15:11;;;;;;;24.92;4.38;;;18.00;63.20;;;;;;5097934;28;20047;-52
2023/06/13 00:17:38;;;;;;;10.52;3.03;;;17.90;63.80;;;;;;5108352;28;20032;-53
2023/06/13 00:20:05;;;;;;;6.53;2.75;;;17.90;63.70;;;;;;5102535;28;20028;-54
2023/06/13 00:22:30;;;;;;;7.45;3.33;;;17.80;63.20;;;;;;5089594;28;20526;-55
2023/06/13 00:24:56;;;;;;;14.27;3.20;;;17.80;63.50;;;;;;5094112;28;20031;-55
2023/06/13 00:27:22;;;;;;;4.82;2.90;;;17.80;63.50;;;;;;5106885;28;20080;-57
2023/06/13 00:29:48;;;;;;;5.18;3.55;;;17.80;63.30;;;;;;5095755;27;20119;-54
2023/06/13 00:32:13;;;;;;;4.95;3.33;;;17.70;63.60;;;;;;5087448;28;20028;-53
2023/06/13 00:34:40;;;;;;;3.40;3.08;;;17.60;63.40;;;;;;5090396;28;20040;-54
2023/06/13 00:37:09;;;;;;;25.33;4.93;;;17.60;63.30;;;;;;5088657;28;20416;-52
2023/06/13 00:39:35;;;;;;;87.03;8.05;;;17.60;63.40;;;;;;5089776;28;20163;-55
2023/06/13 00:42:01;;;;;;;16.70;3.75;;;17.60;63.70;;;;;;5103185;28;20471;-56
2023/06/13 00:44:27;;;;;;;5.93;3.92;;;17.60;63.60;;;;;;5090238;28;20546;-55
2023/06/13 00:46:53;;;;;;;5.03;3.30;;;17.70;63.60;;;;;;5104787;28;20032;-57
2023/06/13 00:49:19;;;;;;;5.35;3.00;;;17.60;63.50;;;;;;5106934;28;20071;-52
2023/06/13 00:51:46;;;;;;;10.77;3.90;;;17.60;63.50;;;;;;5094292;28;20044;-57
2023/06/13 00:54:13;;;;;;;4.95;3.35;;;17.60;63.40;;;;;;5090600;28;20036;-53
2023/06/13 00:56:40;;;;;;;8.23;3.17;;;17.60;63.30;;;;;;5100187;28;20081;-58
2023/06/13 00:59:08;;;;;;;7.00;3.33;;;17.60;63.70;;;;;;5098477;28;20048;-52
2023/06/13 01:01:36;;;;;;;5.82;3.78;;;17.60;63.60;;;;;;5097246;28;20043;-53
2023/06/13 01:04:02;;;;;;;6.05;4.15;;;17.60;63.70;;;;;;5104127;28;20031;-56
2023/06/13 01:06:29;;;;;;;6.32;3.67;;;17.60;63.60;;;;;;5098610;28;20039;-52
2023/06/13 01:08:59;;;;;;;;;;;17.50;63.70;;;;;;5091101;28;20111;-53
2023/06/13 01:11:40;;;;;;;6.32;4.15;;;17.50;63.60;;;;;;5094878;28;20076;-54
2023/06/13 01:14:55;;;;;;;11.32;4.05;;;17.50;63.40;;;;;;5086402;28;20036;-56
2023/06/13 01:17:30;;;;;;;5.32;3.92;;;17.50;64.00;;;;;;5080836;28;20408;-54
2023/06/13 01:20:03;;;;;;;6.57;4.60;;;17.50;63.90;;;;;;5090315;28;20032;-52
2023/06/13 01:22:54;;;;;;;7.60;3.83;;;17.50;63.90;;;;;;5093232;28;20070;-54
2023/06/13 01:25:42;;;;;;;6.68;5.20;;;17.40;64.30;;;;;;5088597;28;20028;-55
2023/06/13 01:28:13;;;;;;;8.65;5.28;;;17.40;63.90;;;;;;5086395;28;20059;-54
2023/06/13 01:30:40;;;;;;;7.65;5.32;;;17.40;63.70;;;;;;5108846;28;20036;-55
2023/06/13 01:33:08;;;;;;;4.65;4.20;;;17.40;63.90;;;;;;5094000;28;20044;-54
2023/06/13 01:35:35;;;;;;;8.40;5.20;;;17.40;64.20;;;;;;5092867;28;20404;-53
2023/06/13 01:38:03;;;;;;;4.82;4.30;;;17.30;64.10;;;;;;5093011;28;20066;-54
2023/06/13 01:40:29;;;;;;;10.43;4.75;;;17.30;64.00;;;;;;5092762;28;20088;-56
2023/06/13 01:42:54;;;;;;;8.13;4.35;;;17.30;64.30;;;;;;5092620;28;20509;-53
2023/06/13 01:45:21;;;;;;;8.52;4.10;;;17.30;64.10;;;;;;5094892;28;20032;-55
2023/06/13 01:48:10;;;;;;;8.00;5.07;;;17.30;64.30;;;;;;5095321;28;20092;-55
2023/06/13 01:50:46;;;;;;;8.85;4.95;;;17.20;64.40;;;;;;5087624;28;20044;-54
2023/06/13 01:53:30;;;;;;;7.95;4.95;;;17.20;64.60;;;;;;5104829;28;20082;-54
2023/06/13 01:56:06;;;;;;;11.15;4.18;;;17.20;64.50;;;;;;5094038;28;20040;-53
2023/06/13 01:58:35;;;;;;;10.00;5.15;;;17.20;64.60;;;;;;5090845;28;20122;-54
2023/06/13 02:01:04;;;;;;;7.57;5.35;;;17.20;64.50;;;;;;5095431;28;20392;-54
2023/06/13 02:03:31;;;;;;;7.90;5.13;;;17.20;64.60;;;;;;5092061;28;20119;-53
2023/06/13 02:05:56;;;;;;;28.30;5.50;;;17.20;64.90;;;;;;5093988;28;20048;-56
2023/06/13 02:08:22;;;;;;;10.20;4.88;;;17.10;64.60;;;;;;5108608;28;20039;-53
2023/06/13 02:10:48;;;;;;;12.63;4.50;;;17.10;64.80;;;;;;5103207;28;20056;-53
2023/06/13 02:13:13;;;;;;;8.90;4.55;;;17.10;64.90;;;;;;5106391;28;20431;-55
2023/06/13 02:15:39;;;;;;;6.47;4.55;;;17.10;64.80;;;;;;5109768;27;20027;-52
2023/06/13 02:18:06;;;;;;;5.97;4.57;;;17.10;65.10;;;;;;5100680;28;20488;-51
2023/06/13 02:20:32;;;;;;;8.00;4.30;;;17.00;65.00;;;;;;5109410;28;20046;-54
2023/06/13 02:22:58;;;;;;;5.28;4.80;;;17.00;65.10;;;;;;5097785;28;20119;-55
2023/06/13 02:25:24;;;;;;;5.80;4.65;;;17.00;65.30;;;;;;5092036;28;20111;-55
2023/06/13 02:27:49;;;;;;;10.45;5.53;;;16.90;65.30;;;;;;5100056;28;20034;-52
2023/06/13 02:30:15;;;;;;;6.85;5.25;;;16.90;65.30;;;;;;5110040;28;20114;-53
2023/06/13 02:32:41;;;;;;;10.25;4.88;;;16.90;65.30;;;;;;5105744;28;20481;-54
2023/06/13 02:35:10;;;;;;;7.07;4.95;;;16.90;65.40;;;;;;5097963;28;20462;-52
2023/06/13 02:37:35;;;;;;;5.15;4.60;;;16.90;65.80;;;;;;5106312;28;20028;-52
2023/06/13 02:40:05;;;;;;;8.82;4.47;;;16.80;65.70;;;;;;5098131;28;20036;-52
2023/06/13 02:42:31;;;;;;;18.73;5.28;;;16.80;65.70;;;;;;5106323;28;20102;-55
2023/06/13 02:44:57;;;;;;;5.85;4.53;;;16.80;65.80;;;;;;5105424;28;20028;-54
2023/06/13 02:47:22;;;;;;;5.80;4.85;;;16.80;66.10;;;;;;5108554;28;20503;-57
2023/06/13 02:49:48;;;;;;;9.57;5.10;;;16.80;66.00;;;;;;5092987;28;20376;-52
2023/06/13 02:52:14;;;;;;;6.00;4.35;;;16.70;66.00;;;;;;5091617;28;20063;-54
2023/06/13 02:54:40;;;;;;;8.10;4.07;;;16.70;66.10;;;;;;5107927;28;20039;-52
2023/06/13 02:57:06;;;;;;;10.85;4.50;;;16.70;66.10;;;;;;5107203;28;20111;-55
2023/06/13 02:59:32;;;;;;;;;;;16.70;66.40;;;;;;5104306;28;20427;-52
2023/06/13 03:01:57;;;;;;;4.60;3.90;;;16.60;66.70;;;;;;5108659;28;19934;-55
2023/06/13 03:04:24;;;;;;;6.53;4.53;;;16.60;66.50;;;;;;5097114;28;20044;-54
2023/06/13 03:06:50;;;;;;;4.63;4.22;;;16.60;66.80;;;;;;5090019;28;20415;-55
2023/06/13 03:09:15;;;;;;;8.43;4.60;;;16.60;66.80;;;;;;5100462;28;20035;-54
2023/06/13 03:11:41;;;;;;;6.32;4.50;;;16.60;66.70;;;;;;5109519;28;20036;-54
2023/06/13 03:14:07;;;;;;;4.57;4.00;;;16.60;66.60;;;;;;5099507;28;20058;-54
2023/06/13 03:16:35;;;;;;;9.32;5.18;;;16.50;66.50;;;;;;5092756;28;20309;-52
2023/06/13 03:19:02;;;;;;;6.15;3.85;;;16.50;66.70;;;;;;5095558;28;20081;-53
2023/06/13 03:21:28;;;;;;;11.68;4.55;;;16.50;66.80;;;;;;5109560;28;20522;-54
2023/06/13 03:23:55;;;;;;;6.07;4.15;;;16.50;67.20;;;;;;5101389;28;20038;-54
2023/06/13 03:26:20;;;;;;;9.73;4.30;;;16.50;67.20;;;;;;5091159;28;20097;-51
2023/06/13 03:28:46;;;;;;;7.95;4.30;;;16.50;67.20;;;;;;5091606;28;20028;-52
2023/06/13 03:31:12;;;;;;;10.38;4.60;;;16.50;67.30;;;;;;5091271;28;20036;-56
2023/06/13 03:33:38;;;;;;;9.07;4.32;;;16.40;67.60;;;;;;5094614;28;20035;-54
2023/06/13 03:36:03;;;;;;;6.28;4.35;;;16.40;67.90;;;;;;5099498;28;20055;-54
2023/06/13 03:38:29;;;;;;;11.23;4.93;;;16.30;67.90;;;;;;5093511;28;20110;-56
2023/06/13 03:40:55;;;;;;;5.05;4.38;;;16.30;68.30;;;;;;5109046;27;20326;-52
2023/06/13 03:43:20;;;;;;;9.98;5.00;;;16.20;68.40;;;;;;5107603;28;20039;-53
2023/06/13 03:45:48;;;;;;;9.93;4.72;;;16.10;68.50;;;;;;5102357;28;20042;-53
2023/06/13 03:48:14;;;;;;;15.48;4.88;;;16.10;68.60;;;;;;5102621;28;20111;-52
2023/06/13 03:50:39;;;;;;;19.55;4.72;;;16.10;69.00;;;;;;5092084;28;20123;-52
2023/06/13 03:53:05;;;;;;;14.07;5.50;;;16.10;69.30;;;;;;5089494;28;20036;-56
2023/06/13 03:55:31;;;;;;;8.85;4.18;;;16.10;69.10;;;;;;5106255;28;20524;-53
2023/06/13 03:57:58;;;;;;;8.88;5.15;;;16.10;69.10;;;;;;5101743;28;20063;-54
2023/06/13 04:00:23;;;;;;;6.57;4.43;;;16.10;69.00;;;;;;5106133;28;20048;-53
2023/06/13 04:02:49;;;;;;;8.15;4.45;;;16.20;69.00;;;;;;5108334;28;20381;-54
2023/06/13 04:05:16;;;;;;;5.13;3.95;;;16.10;69.00;;;;;;5102752;28;20035;-55
2023/06/13 04:07:42;;;;;;;7.13;4.45;;;16.20;69.00;;;;;;5105267;28;20043;-54
2023/06/13 04:10:08;;;;;;;11.15;4.18;;;16.30;69.30;;;;;;5103832;28;20114;-52
2023/06/13 04:12:33;;;;;;;7.68;4.55;;;16.30;69.20;;;;;;5108069;28;20446;-53
2023/06/13 04:14:59;;;;;;;6.72;4.07;;;16.30;69.20;;;;;;5096523;28;20089;-54
2023/06/13 04:17:25;;;;;;;7.45;4.05;;;16.30;69.50;;;;;;5100490;28;20040;-55
2023/06/13 04:19:50;;;;;;;9.45;4.47;;;16.30;69.50;;;;;;5106212;28;20092;-51
2023/06/13 04:22:19;;;;;;;9.68;4.35;;;16.30;69.40;;;;;;5097263;28;20116;-52
2023/06/13 04:24:46;;;;;;;6.38;4.13;;;16.30;69.40;;;;;;5093299;28;20416;-54
2023/06/13 04:27:19;;;;;;;6.85;4.32;;;16.30;69.50;;;;;;5099622;28;20035;-56
2023/06/13 04:29:47;;;;;;;6.20;3.80;;;16.30;69.70;;;;;;5088856;28;20040;-53
2023/06/13 04:32:17;;;;;;;8.27;4.15;;;16.30;69.80;;;;;;5087595;28;20063;-53
2023/06/13 04:34:52;;;;;;;6.93;3.72;;;16.40;69.70;;;;;;5106326;28;20437;-55
2023/06/13 04:37:26;;;;;;;8.55;3.88;;;16.40;69.80;;;;;;5103997;28;20168;-52
2023/06/13 04:39:52;;;;;;;4.93;3.97;;;16.40;69.90;;;;;;5107828;28;20044;-54
2023/06/13 04:42:27;;;;;;;6.57;3.88;;;16.40;70.00;;;;;;5107450;28;20071;-53
2023/06/13 04:44:55;;;;;;;6.47;4.07;;;16.50;70.10;;;;;;5090344;28;20043;-57
2023/06/13 04:47:29;;;;;;;10.43;4.63;;;16.50;70.00;;;;;;5097361;28;20118;-57
2023/06/13 04:49:58;;;;;;;27.23;5.72;;;16.50;70.20;;;;;;5105346;28;20183;-54
2023/06/13 04:52:29;;;;;;;7.85;5.68;;;16.60;70.10;;;;;;5099365;28;20044;-53
2023/06/13 04:54:56;;;;;;;10.95;5.75;;;16.60;70.00;;;;;;5105819;28;20031;-53
2023/06/13 04:57:22;;;;;;;8.95;4.90;;;16.60;70.20;;;;;;5105132;28;20087;-58
2023/06/13 04:59:48;;;;;;;11.75;5.05;;;16.70;70.30;;;;;;5092041;28;20464;-55
2023/06/13 05:02:14;;;;;;;5.43;4.65;;;16.70;70.20;;;;;;5086707;28;20039;-52
2023/06/13 05:04:40;;;;;;;7.55;4.70;;;16.80;70.20;;;;;;5102116;28;20085;-55
2023/06/13 05:07:07;;;;;;;22.48;4.43;;;16.90;70.40;;;;;;5092259;28;20116;-52
2023/06/13 05:09:33;;;;;;;5.65;3.92;;;16.90;70.20;;;;;;5100281;28;20546;-55
2023/06/13 05:11:58;;;;;;;6.85;3.92;;;17.00;70.10;;;;;;5106109;28;20069;-56
2023/06/13 05:14:24;;;;;;;8.05;3.90;;;17.00;70.30;;;;;;5097139;28;20496;-52
2023/06/13 05:16:50;;;;;;;7.55;3.67;;;17.10;70.20;;;;;;5091846;28;20439;-51
2023/06/13 05:19:17;;;;;;;11.48;4.25;;;17.20;70.30;;;;;;5096664;28;20044;-54
2023/06/13 05:21:43;;;;;;;8.98;3.53;;;17.20;70.50;;;;;;5107367;28;20051;-58
2023/06/13 05:24:10;;;;;;;92.30;8.40;;;17.20;70.60;;;;;;5104543;28;20032;-51
2023/06/13 05:26:36;;;;;;;6.03;3.28;;;17.30;70.10;;;;;;5106664;28;20036;-53
2023/06/13 05:29:04;;;;;;;7.88;4.03;;;17.40;70.70;;;;;;5101051;28;20413;-52
2023/06/13 05:31:31;;;;;;;6.43;3.60;;;17.40;70.50;;;;;;5089831;28;20043;-53
2023/06/13 05:33:57;;;;;;;11.18;3.75;;;17.50;70.40;;;;;;5085922;28;20032;-52
2023/06/13 05:36:23;;;;;;;7.47;2.70;;;17.60;70.40;;;;;;5090446;28;20024;-54
2023/06/13 05:38:48;;;;;;;12.07;3.20;;;17.60;69.60;;;;;;5090699;28;20043;-52
2023/06/13 05:41:14;;;;;;;6.90;3.40;;;17.70;69.80;;;;;;5107978;28;20040;-54
2023/06/13 05:43:40;;;;;;;14.30;3.03;;;17.80;69.90;;;;;;5101702;28;20048;-57
2023/06/13 05:46:05;;;;;;;7.35;3.55;;;17.90;70.30;;;;;;5099302;28;20031;-55
2023/06/13 05:48:31;;;;;;;9.48;3.85;;;17.90;69.50;;;;;;5094655;28;20044;-51
2023/06/13 05:50:58;;;;;;;8.40;3.63;;;18.00;70.00;;;;;;5088786;28;20050;-55
2023/06/13 05:53:23;;;;;;;17.63;3.22;;;18.10;70.10;;;;;;5088384;28;20036;-54
2023/06/13 05:55:49;;;;;;;55.88;5.97;;;18.20;70.30;;;;;;5090380;28;20111;-55
2023/06/13 05:58:14;;;;;;;6.47;2.88;;;18.20;69.70;;;;;;5087955;28;20397;-56
2023/06/13 06:00:40;;;;;;;38.25;5.03;;;18.30;69.70;;;;;;5098274;28;20123;-56
2023/06/13 06:03:06;;;;;;;6.60;3.22;;;18.40;69.60;;;;;;5088223;28;20044;-55
2023/06/13 06:05:32;;;;;;;13.18;3.17;;;18.50;70.10;;;;;;5098266;28;20046;-55
2023/06/13 06:07:57;;;;;;;5.50;2.50;;;18.60;69.30;;;;;;5105154;28;20036;-54
2023/06/13 06:10:23;;;;;;;7.20;2.72;;;18.60;68.60;;;;;;5091251;28;20119;-52
2023/06/13 06:12:48;;;;;;;5.95;3.03;;;18.70;68.30;;;;;;5080527;28;20039;-56
2023/06/13 06:15:14;;;;;;;16.70;3.05;;;18.70;68.30;;;;;;5087002;28;20040;-56
2023/06/13 06:17:40;;;;;;;9.07;4.22;;;18.80;67.70;;;;;;5102317;28;20042;-57
2023/06/13 06:20:06;;;;;;;8.93;3.80;;;18.90;68.30;;;;;;5095519;28;20093;-54
2023/06/13 06:22:31;;;;;;;;;;;18.90;68.30;;;;;;5089042;28;20063;-51
2023/06/13 06:24:57;;;;;;;58.00;6.50;;;19.00;67.90;;;;;;5088908;28;20384;-53
2023/06/13 06:27:23;;;;;;;8.55;2.63;;;19.10;67.70;;;;;;5093245;28;20036;-56
2023/06/13 06:29:48;;;;;;;33.08;4.00;;;19.10;68.10;;;;;;5091738;28;20489;-56
2023/06/13 06:32:14;;;;;;;19.17;3.22;;;19.20;68.30;;;;;;5099929;28;20175;-56
2023/06/13 06:34:40;;;;;;;;;;;19.30;68.40;;;;;;5089147;28;20039;-55
2023/06/13 06:37:05;;;;;;;9.05;3.00;;;19.40;68.10;;;;;;5095343;28;20342;-53
2023/06/13 06:39:31;;;;;;;14.18;2.30;;;19.50;67.30;;;;;;5084743;28;20097;-54
2023/06/13 06:41:57;;;;;;;;;;;19.50;67.30;;;;;;5101262;28;20122;-55
2023/06/13 06:44:22;;;;;;;38.13;4.60;;;19.70;67.60;;;;;;5102991;28;20372;-54
2023/06/13 06:46:48;;;;;;;;;;;19.70;67.40;;;;;;5090596;28;20035;-53
2023/06/13 06:49:17;;;;;;;4.32;2.67;;;19.80;66.90;;;;;;5090028;28;20376;-53
2023/06/13 06:51:43;;;;;;;5.95;2.60;;;19.90;66.40;;;;;;5092171;28;20043;-53
2023/06/13 06:54:08;;;;;;;7.38;2.90;;;20.00;66.20;;;;;;5104828;27;20032;-57
2023/06/13 06:56:34;;;;;;;;;;;20.00;66.30;;;;;;5095104;28;20086;-58
2023/06/13 06:58:59;;;;;;;10.23;2.83;;;20.10;65.70;;;;;;5089488;28;19916;-55
2023/06/13 07:01:25;;;;;;;9.32;2.28;;;20.20;66.30;;;;;;5089244;28;20032;-55
2023/06/13 07:03:51;;;;;;;;;;;20.30;66.00;;;;;;5105525;28;20500;-53
2023/06/13 07:06:16;;;;;;;6.13;1.98;;;20.30;66.90;;;;;;5103259;28;20310;-55
2023/06/13 07:08:42;;;;;;;;;;;20.40;66.00;;;;;;5103758;27;20416;-56
2023/06/13 07:11:07;;;;;;;3.97;2.10;;;20.50;66.20;;;;;;5098102;28;19916;-54
2023/06/13 07:13:36;;;;;;;7.30;2.45;;;20.50;65.90;;;;;;5099993;28;20419;-55
2023/06/13 07:16:02;;;;;;;;;;;20.60;66.00;;;;;;5096524;28;20036;-54
2023/06/13 07:18:29;;;;;;;3.00;1.92;;;20.70;65.60;;;;;;5103107;28;19919;-57
2023/06/13 07:20:55;;;;;;;5.00;2.25;;;20.80;65.40;;;;;;5098966;28;20081;-59
2023/06/13 07:23:21;;;;;;;;;;;20.80;65.10;;;;;;5090172;28;20044;-54
2023/06/13 07:25:46;;;;;;;6.85;2.22;;;20.90;65.30;;;;;;5088397;28;19916;-58
2023/06/13 07:28:12;;;;;;;;;;;21.00;65.90;;;;;;5097368;28;20032;-57
2023/06/13 07:30:37;;;;;;;4.88;2.35;;;21.10;64.80;;;;;;5099221;28;19978;-55
2023/06/13 07:33:03;;;;;;;;;;;21.20;65.50;;;;;;5091761;28;20407;-56
2023/06/13 07:35:29;;;;;;;5.28;2.40;;;21.20;64.80;;;;;;5096175;28;19915;-55
2023/06/13 07:37:55;;;;;;;;;;;21.20;65.60;;;;;;5088357;28;20119;-55
2023/06/13 07:40:21;;;;;;;12.18;2.35;;;21.30;65.00;;;;;;5087484;28;19923;-55
2023/06/13 07:42:48;;;;;;;6.85;2.40;;;21.30;65.90;;;;;;5081558;28;20572;-57
2023/06/13 07:45:14;;;;;;;11.35;3.03;;;21.40;65.60;;;;;;5094629;28;20076;-60
2023/06/13 07:47:40;;;;;;;;;;;21.50;65.50;;;;;;5089106;28;20028;-57
2023/06/13 07:50:06;;;;;;;4.43;1.83;;;21.50;65.50;;;;;;5081548;28;19916;-59
2023/06/13 07:52:32;;;;;;;7.38;3.45;;;21.50;65.20;;;;;;5084543;28;20040;-60
2023/06/13 07:54:57;;;;;;;;;;;21.60;66.10;;;;;;5076340;28;20039;-55
2023/06/13 07:57:23;;;;;;;4.35;2.60;;;21.70;65.40;;;;;;5079800;28;20265;-58
2023/06/13 07:59:48;;;;;;;;;;;21.70;64.90;;;;;;5076060;28;20097;-56
2023/06/13 08:02:14;;;;;;;6.00;3.78;;;21.80;65.10;;;;;;5079386;28;19920;-58
2023/06/13 08:04:40;;;;;;;7.85;2.60;;;21.90;64.80;;;;;;5079515;28;20028;-59
2023/06/13 08:07:05;;;;;;;;;;;22.00;64.80;;;;;;5073684;28;20032;-54
2023/06/13 08:09:31;;;;;;;11.38;3.30;;;22.00;63.70;;;;;;5075063;28;19924;-59
2023/06/13 08:11:59;;;;;;;5.35;2.30;;;22.00;64.50;;;;;;5073117;28;20044;-58
2023/06/13 08:14:25;;;;;;;4.57;2.90;;;22.10;65.10;;;;;;5075051;28;20392;-57
2023/06/13 08:16:50;;;;;;;;;;;22.20;64.20;;;;;;5075342;28;20525;-57
2023/06/13 08:19:16;;;;;;;6.85;2.70;;;22.30;65.10;;;;;;5080560;28;20010;-57
2023/06/13 08:21:43;;;;;;;9.32;3.40;;;22.30;64.20;;;;;;5075790;28;20251;-57
2023/06/13 08:24:08;;;;;;;4.45;2.65;;;22.40;63.80;;;;;;5076047;28;20551;-58
2023/06/13 08:26:34;;;;;;;;;;;22.40;63.50;;;;;;5062668;28;20315;-54
2023/06/13 08:29:03;;;;;;;8.63;3.17;;;22.40;63.30;;;;;;5079438;28;19923;-52
2023/06/13 08:31:31;;;;;;;10.23;3.03;;;22.50;64.90;;;;;;5078347;28;20517;-59
2023/06/13 08:33:58;;;;;;;8.50;3.28;;;22.60;65.00;;;;;;5082006;28;20039;-57
2023/06/13 08:36:25;;;;;;;5.60;2.63;;;22.70;64.10;;;;;;5076257;28;20032;-55
2023/06/13 08:38:51;;;;;;;8.05;2.58;;;22.80;63.90;;;;;;5078106;28;20032;-53
2023/06/13 08:41:17;;;;;;;19.15;3.30;;;22.90;63.30;;;;;;5086864;28;20051;-58
2023/06/13 08:43:43;;;;;;;7.38;2.83;;;22.90;63.30;;;;;;5085528;28;20427;-58
2023/06/13 08:46:10;;;;;;;6.10;2.92;;;23.00;62.80;;;;;;5085461;28;20033;-58
2023/06/13 08:48:36;;;;;;;4.80;3.15;;;23.10;63.60;;;;;;5082232;28;20512;-57
2023/06/13 08:51:03;;;;;;;;;;;23.20;63.10;;;;;;5081983;28;20369;-55
2023/06/13 08:53:31;;;;;;;5.95;2.30;;;23.30;62.40;;;;;;5077513;28;19922;-61
2023/06/13 08:56:03;;;;;;;5.47;3.50;;;23.40;62.20;;;;;;5073517;28;20032;-54
2023/06/13 08:58:33;;;;;;;18.52;3.00;;;23.40;62.50;;;;;;5074310;28;20062;-56
2023/06/13 09:01:00;;;;;;;6.05;3.00;;;23.50;63.40;;;;;;5074980;28;20036;-57
2023/06/13 09:03:28;;;;;;;8.10;3.38;;;23.60;63.00;;;;;;5076484;28;20616;-58
2023/06/13 09:05:55;;;;;;;11.73;2.72;;;23.70;63.00;;;;;;5076359;28;20040;-57
2023/06/13 09:08:22;;;;;;;5.38;2.40;;;23.80;62.60;;;;;;5076780;28;20490;-55
2023/06/13 09:10:49;;;;;;;7.20;2.88;;;23.90;62.10;;;;;;5073919;28;20392;-58
2023/06/13 09:13:16;;;;;;;6.30;2.78;;;23.90;61.70;;;;;;5078153;28;20082;-56
2023/06/13 09:15:44;;;;;;;10.25;2.65;;;23.90;61.40;;;;;;5075001;28;20094;-58
2023/06/13 09:18:14;;;;;;;4.95;2.45;;;24.00;61.40;;;;;;5077597;28;20040;-55
2023/06/13 09:20:40;;;;;;;3.30;2.22;;;24.00;62.30;;;;;;5072721;28;20117;-56
2023/06/13 09:23:07;;;;;;;12.55;3.60;;;24.00;62.00;;;;;;5076910;28;20044;-58
2023/06/13 09:25:35;;;;;;;7.40;2.35;;;24.10;61.20;;;;;;5070351;28;20416;-56
2023/06/13 09:28:37;;;;;;;7.45;2.65;;;24.20;61.00;;;;;;5075696;28;20254;-59
2023/06/13 09:31:03;;;;;;;5.03;2.53;;;24.30;59.90;;;;;;5061566;28;20127;-57
2023/06/13 09:33:29;;;;;;;7.10;2.13;;;24.40;61.00;;;;;;5055341;28;20130;-56
2023/06/13 09:35:55;;;;;;;7.13;2.50;;;24.60;61.10;;;;;;5072265;28;20506;-57
2023/06/13 09:38:23;;;;;;;3.28;2.45;;;24.70;60.60;;;;;;5075126;28;20042;-59
2023/06/13 09:40:53;;;;;;;6.32;2.80;;;24.70;60.20;;;;;;5074990;28;20047;-58
2023/06/13 09:43:19;;;;;;;5.40;2.42;;;24.80;59.00;;;;;;5075359;28;20508;-58
2023/06/13 09:45:46;;;;;;;4.60;1.88;;;24.80;60.60;;;;;;5076413;28;20071;-58
2023/06/13 09:48:12;;;;;;;8.07;2.50;;;24.90;59.50;;;;;;5081361;28;20445;-57
2023/06/13 09:50:40;;;;;;;6.45;1.90;;;24.90;58.40;;;;;;5084530;28;20077;-56
2023/06/13 09:53:07;;;;;;;4.68;2.38;;;24.90;59.40;;;;;;5090218;28;20119;-56
2023/06/13 09:55:33;;;;;;;3.25;2.22;;;25.00;58.90;;;;;;5087399;28;20050;-56
2023/06/13 09:57:59;;;;;;;4.28;2.72;;;25.20;58.90;;;;;;5082753;28;20116;-59
2023/06/13 10:00:25;;;;;;;5.53;2.42;;;25.20;58.50;;;;;;5086542;28;20122;-56
2023/06/13 10:02:51;;;;;;;3.47;1.85;;;25.20;58.60;;;;;;5083330;28;20093;-53
2023/06/13 10:05:17;;;;;;;5.00;2.20;;;25.30;59.00;;;;;;5079826;28;20037;-52
2023/06/13 10:07:43;;;;;;;8.65;2.17;;;25.30;59.20;;;;;;5082221;28;20591;-55
2023/06/13 10:10:08;;;;;;;4.75;2.45;;;25.50;59.70;;;;;;5080562;28;20034;-54
2023/06/13 10:12:40;;;;;;;7.15;3.17;;;25.50;58.50;;;;;;5085876;28;20067;-58
2023/06/13 10:15:07;;;;;;;8.50;2.70;;;25.60;57.10;;;;;;5081647;28;20039;-58
2023/06/13 10:17:38;;;;;;;3.03;2.28;;;25.70;58.80;;;;;;5085594;28;20565;-57
2023/06/13 10:20:08;;;;;;;5.95;2.60;;;25.70;57.90;;;;;;5084042;28;20119;-53
2023/06/13 10:22:38;;;;;;;5.60;2.25;;;25.70;57.80;;;;;;5077943;28;20085;-58
2023/06/13 10:25:06;;;;;;;7.03;2.38;;;25.70;57.20;;;;;;5080493;28;20033;-58
2023/06/13 10:27:32;;;;;;;3.78;2.42;;;25.70;56.60;;;;;;5075805;28;20036;-55
2023/06/13 10:30:13;;;;;;;4.65;2.05;;;25.80;57.40;;;;;;5076840;28;20485;-55
2023/06/13 10:32:54;;;;;;;4.47;2.92;;;25.80;56.40;;;;;;5058695;28;20036;-53
2023/06/13 10:36:00;;;;;;;3.40;2.42;;;25.80;55.00;;;;;;5076761;28;20139;-58
2023/06/13 10:38:48;;;;;;;4.57;2.70;;;25.80;55.70;;;;;;5076596;28;20426;-56
2023/06/13 10:41:38;;;;;;;7.63;2.10;;;25.80;55.90;;;;;;5078153;28;20044;-58
2023/06/13 10:44:36;;;;;;;2.88;2.47;;;25.90;55.80;;;;;;5082961;28;20397;-55
2023/06/13 10:47:01;;;;;;;4.75;2.15;;;26.10;57.90;;;;;;5092294;28;20041;-59
2023/06/13 10:49:38;;;;;;;3.05;2.78;;;26.20;56.80;;;;;;5089354;28;20405;-57
2023/06/13 10:52:09;;;;;;;6.57;3.17;;;26.30;56.30;;;;;;5090547;28;20063;-54
2023/06/13 10:54:34;;;;;;;5.90;2.83;;;26.40;55.60;;;;;;5079192;28;20063;-57
2023/06/13 10:57:01;;;;;;;6.55;2.67;;;26.30;55.00;;;;;;5090483;27;20059;-56
2023/06/13 10:59:35;;;;;;;3.85;3.13;;;26.30;54.20;;;;;;5086303;28;20036;-58
2023/06/13 11:02:01;;;;;;;10.55;3.10;;;26.30;56.30;;;;;;5085101;28;20061;-56
2023/06/13 11:04:28;;;;;;;12.07;2.90;;;26.40;55.00;;;;;;5086308;28;20036;-55
2023/06/13 11:07:20;;;;;;;3.10;2.75;;;26.40;54.30;;;;;;5084328;28;20039;-55
2023/06/13 11:10:16;;;;;;;6.50;2.83;;;26.40;52.60;;;;;;5074915;28;20492;-55
2023/06/13 11:12:45;;;;;;;5.43;2.47;;;26.50;54.40;;;;;;5080221;28;20090;-60
2023/06/13 11:15:21;;;;;;;5.15;2.80;;;26.40;53.30;;;;;;5070089;28;20421;-57
2023/06/13 11:18:05;;;;;;;14.50;2.45;;;26.30;54.30;;;;;;5094913;28;20469;-59
2023/06/13 11:20:31;;;;;;;7.43;2.83;;;26.40;54.70;;;;;;5095299;28;20648;-58
2023/06/13 11:22:57;;;;;;;3.83;3.05;;;26.40;54.70;;;;;;5096950;28;20119;-59
2023/06/13 11:25:23;;;;;;;6.85;2.88;;;26.40;55.80;;;;;;5098458;28;20118;-54
2023/06/13 11:27:50;;;;;;;4.05;2.75;;;26.40;54.80;;;;;;5098537;28;20031;-54
2023/06/13 11:30:17;;;;;;;5.60;2.55;;;26.40;53.90;;;;;;5091356;28;20044;-57
2023/06/13 11:32:43;;;;;;;2.95;2.20;;;26.40;52.70;;;;;;5079440;28;20047;-58
2023/06/13 11:35:10;;;;;;;4.38;2.30;;;26.40;54.40;;;;;;5084157;28;20104;-55
2023/06/13 11:37:44;;;;;;;7.75;2.22;;;26.50;53.80;;;;;;5084759;28;20481;-58
2023/06/13 11:40:23;;;;;;;3.63;2.55;;;26.50;53.00;;;;;;5093946;28;20050;-58
2023/06/13 11:42:50;;;;;;;3.38;2.13;;;26.50;51.80;;;;;;5086826;28;20610;-56
2023/06/13 11:45:16;;;;;;;12.02;3.33;;;26.50;54.20;;;;;;5089063;28;20042;-51
2023/06/13 11:47:44;;;;;;;18.67;2.60;;;26.60;55.10;;;;;;5087133;28;20043;-58
2023/06/13 11:50:10;;;;;;;27.48;3.30;;;26.60;55.60;;;;;;5086508;28;20036;-53
2023/06/13 11:52:36;;;;;;;7.28;2.67;;;26.70;55.60;;;;;;5070200;28;20048;-54
2023/06/13 11:55:18;;;;;;;8.77;3.40;;;26.80;54.50;;;;;;5084716;28;20571;-58
2023/06/13 11:57:48;;;;;;;11.38;2.83;;;26.90;53.70;;;;;;5093660;28;20095;-55
2023/06/13 12:00:14;;;;;;;6.05;2.50;;;26.90;53.90;;;;;;5086105;28;20058;-56
2023/06/13 12:02:40;;;;;;;2.85;2.45;;;27.00;54.90;;;;;;5089989;28;20431;-58
2023/06/13 12:05:09;;;;;;;4.75;2.45;;;27.00;52.30;;;;;;5080768;28;20179;-56
2023/06/13 12:07:35;;;;;;;4.25;2.47;;;26.90;52.90;;;;;;5084991;28;20044;-60
2023/06/13 12:10:01;;;;;;;5.75;2.40;;;26.90;53.40;;;;;;5084659;28;20047;-55
2023/06/13 12:12:27;;;;;;;4.55;2.30;;;26.90;53.60;;;;;;5073969;28;20376;-58
2023/06/13 12:14:54;;;;;;;9.07;2.45;;;26.90;52.40;;;;;;5079216;28;20028;-56
2023/06/13 12:17:20;;;;;;;4.63;2.85;;;27.00;52.00;;;;;;5081822;28;20058;-55
2023/06/13 12:19:45;;;;;;;4.88;2.45;;;27.00;52.00;;;;;;5095499;28;20483;-58
2023/06/13 12:22:13;;;;;;;8.40;2.65;;;27.10;51.90;;;;;;5080813;28;20039;-58
2023/06/13 12:24:39;;;;;;;6.28;3.08;;;27.00;53.00;;;;;;5088951;28;20500;-55
2023/06/13 12:27:05;;;;;;;6.93;2.95;;;27.00;52.10;;;;;;5103231;28;20039;-55
2023/06/13 12:29:34;;;;;;;5.05;2.60;;;26.90;53.10;;;;;;5091600;28;20047;-52
2023/06/13 12:32:03;;;;;;;4.63;2.30;;;26.80;51.90;;;;;;5089147;28;20071;-58
2023/06/13 12:34:34;;;;;;;6.72;2.50;;;26.80;51.90;;;;;;5088413;28;20035;-58
2023/06/13 12:37:04;;;;;;;5.50;2.60;;;26.80;50.70;;;;;;5100324;28;20750;-58
2023/06/13 12:39:31;;;;;;;12.48;3.10;;;26.80;51.90;;;;;;5088890;28;20246;-57
2023/06/13 12:42:01;;;;;;;15.70;3.67;;;26.90;52.30;;;;;;5095548;28;20471;-60
2023/06/13 12:44:30;;;;;;;4.35;2.55;;;26.90;52.10;;;;;;5090942;28;20102;-57
2023/06/13 12:47:02;;;;;;;6.15;2.83;;;26.90;52.70;;;;;;5085796;28;20040;-59
2023/06/13 12:49:37;;;;;;;3.20;2.90;;;26.80;52.10;;;;;;5086399;28;20590;-57
2023/06/13 12:52:05;;;;;;;6.90;2.93;;;26.80;52.20;;;;;;5095601;28;20043;-56
2023/06/13 12:54:34;;;;;;;12.90;2.75;;;26.80;52.40;;;;;;5086482;28;20118;-57